Alev Kaman — TCCN5 — position and weather

sailwx.info

Track history (hours):
 
Tides and Currents Weather Stations Pressure Air Temp Water Temp Dewpoint Dewpoint Depression Visibility Wind Speed Wind Dir Waves Ship Positions

Alev Kaman

Last reported at 2014-Aug-28 21:30 UTC. Time now 2014-Sep-01 18:47 UTC.
Position N 40°55' E 028°38'.

Length 93 m; draft 6.1 m.

Type: Tanker. MMSI: 271000716.

Date/timePositionNaut miles runAvg speedWind from/ knotsBaromVisibWave heightAir tempDewpointWater temp
2014-Aug-28 21:30N 40°55' E 028°38'9 9.6
2014-Aug-28 20:32N 40°50' E 028°49'10 9.8
2014-Aug-28 19:33N 40°47' E 029°01'1010.2
2014-Aug-28 18:33N 40°45' E 029°14'10 9.7
2014-Aug-28 17:33N 40°45' E 029°27'9 8.2
2014-Aug-28 16:29N 40°45' E 029°39'  
2014-Aug-24 21:14N 40°46' E 029°33'1 1.6
2014-Aug-24 20:32N 40°46' E 029°34'6 0.3
2014-Aug-24 01:32N 40°45' E 029°42'9 8.8
2014-Aug-24 00:33N 40°45' E 029°30'9 8.4
2014-Aug-23 23:31N 40°44' E 029°19'9 8.7
2014-Aug-23 22:33N 40°48' E 029°08'8 8.3
2014-Aug-23 21:33N 40°51' E 028°58'9 9.4
2014-Aug-23 20:33N 41°00' E 028°60'284 8.8
2014-Aug-22 12:22N 42°05' E 035°10'  
2014-Aug-19 16:33N 41°17' E 029°38'9 9.4
2014-Aug-19 15:33N 41°17' E 029°26'28 7.0
2014-Aug-19 11:33N 40°57' E 028°59'5 2.3
2014-Aug-19 09:13N 40°57' E 028°52'0 0.0
2014-Aug-18 22:16N 40°57' E 028°52'1 0.9
2014-Aug-18 21:31N 40°56' E 028°52'  
Track history (hours):
 
Tides and Currents Weather Stations Pressure Air Temp Water Temp Dewpoint Dewpoint Depression Visibility Wind Speed Wind Dir Waves Ship Positions

Alev Kaman

Last reported at 2014-Aug-28 21:30 UTC. Time now 2014-Sep-01 18:47 UTC.
Position N 40°55' E 028°38'.

Length 93 m; draft 6.1 m.

Type: Tanker. MMSI: 271000716.

Date/timePositionNaut miles runAvg speedWind from/ knotsBaromVisibWave heightAir tempDewpointWater temp
2014-Aug-28 21:30N 40°55' E 028°38'9 9.6
2014-Aug-28 20:32N 40°50' E 028°49'10 9.8
2014-Aug-28 19:33N 40°47' E 029°01'1010.2
2014-Aug-28 18:33N 40°45' E 029°14'10 9.7
2014-Aug-28 17:33N 40°45' E 029°27'9 8.2
2014-Aug-28 16:29N 40°45' E 029°39'  
2014-Aug-24 21:14N 40°46' E 029°33'1 1.6
2014-Aug-24 20:32N 40°46' E 029°34'6 0.3
2014-Aug-24 01:32N 40°45' E 029°42'9 8.8
2014-Aug-24 00:33N 40°45' E 029°30'9 8.4
2014-Aug-23 23:31N 40°44' E 029°19'9 8.7
2014-Aug-23 22:33N 40°48' E 029°08'8 8.3
2014-Aug-23 21:33N 40°51' E 028°58'9 9.4
2014-Aug-23 20:33N 41°00' E 028°60'284 8.8
2014-Aug-22 12:22N 42°05' E 035°10'  
2014-Aug-19 16:33N 41°17' E 029°38'9 9.4
2014-Aug-19 15:33N 41°17' E 029°26'28 7.0
2014-Aug-19 11:33N 40°57' E 028°59'5 2.3
2014-Aug-19 09:13N 40°57' E 028°52'0 0.0
2014-Aug-18 22:16N 40°57' E 028°52'1 0.9
2014-Aug-18 21:31N 40°56' E 028°52'  

Dump ship's entire track history